createdAt,value
2022-08-12T00:00:18.710Z,19.20
2022-08-12T00:03:04.564Z,19.20
2022-08-12T00:06:01.730Z,19.20
2022-08-12T00:08:51.745Z,19.20
2022-08-12T00:11:37.938Z,19.10
2022-08-12T00:14:23.468Z,19.10
2022-08-12T00:17:09.041Z,19.10
2022-08-12T00:19:54.671Z,19.10
2022-08-12T00:22:41.680Z,19.00
2022-08-12T00:26:00.365Z,19.00
2022-08-12T00:28:33.936Z,18.90
2022-08-12T00:31:19.451Z,18.90
2022-08-12T00:34:05.169Z,18.80
2022-08-12T00:36:51.411Z,18.80
2022-08-12T00:39:38.790Z,18.70
2022-08-12T00:42:12.823Z,18.70
2022-08-12T00:44:43.103Z,18.60
2022-08-12T00:47:24.254Z,18.60
2022-08-12T00:49:53.951Z,18.60
2022-08-12T00:52:22.294Z,18.50
2022-08-12T00:54:53.284Z,18.50
2022-08-12T00:57:22.660Z,18.40
2022-08-12T00:59:52.783Z,18.50
2022-08-12T01:02:26.899Z,18.40
2022-08-12T01:05:16.219Z,18.30
2022-08-12T01:08:02.312Z,18.30
2022-08-12T01:10:50.901Z,18.30
2022-08-12T01:13:20.526Z,18.20
2022-08-12T01:15:52.206Z,18.20
2022-08-12T01:18:21.448Z,18.10
2022-08-12T01:20:55.883Z,18.10
2022-08-12T01:23:52.797Z,18.10
2022-08-12T01:26:24.372Z,18.00
2022-08-12T01:28:57.054Z,18.00
2022-08-12T01:31:29.298Z,18.00
2022-08-12T01:34:03.511Z,18.00
2022-08-12T01:36:41.239Z,17.90
2022-08-12T01:39:09.594Z,17.90
2022-08-12T01:41:43.031Z,17.90
2022-08-12T01:44:20.665Z,17.90
2022-08-12T01:46:57.620Z,17.90
2022-08-12T01:49:48.615Z,17.80
2022-08-12T01:52:28.490Z,17.80
2022-08-12T01:54:58.682Z,17.80
2022-08-12T01:57:58.867Z,17.80
2022-08-12T02:00:35.992Z,17.70
2022-08-12T02:03:27.141Z,17.70
2022-08-12T02:06:18.151Z,17.70
2022-08-12T02:09:06.462Z,17.60
2022-08-12T02:11:35.821Z,17.60
2022-08-12T02:14:19.946Z,17.60
2022-08-12T02:16:59.954Z,17.50
2022-08-12T02:19:49.545Z,17.50
2022-08-12T02:22:28.629Z,17.50
2022-08-12T02:25:03.394Z,17.50
2022-08-12T02:27:36.470Z,17.50
2022-08-12T02:30:08.929Z,17.40
2022-08-12T02:32:40.443Z,17.40
2022-08-12T02:35:11.450Z,17.40
2022-08-12T02:37:40.787Z,17.40
2022-08-12T02:40:12.426Z,17.40
2022-08-12T02:42:53.886Z,17.40
2022-08-12T02:45:33.551Z,17.40
2022-08-12T02:48:06.269Z,17.40
2022-08-12T02:50:42.217Z,17.40
2022-08-12T02:53:10.584Z,17.30
2022-08-12T02:55:38.825Z,17.30
2022-08-12T02:58:12.442Z,17.30
2022-08-12T03:00:45.010Z,17.30
2022-08-12T03:03:15.268Z,17.20
2022-08-12T03:05:50.820Z,17.20
2022-08-12T03:08:31.517Z,17.20
2022-08-12T03:11:04.773Z,17.20
2022-08-12T03:13:40.176Z,17.20
2022-08-12T03:16:09.854Z,17.10
2022-08-12T03:18:38.160Z,17.10
2022-08-12T03:21:06.808Z,17.10
2022-08-12T03:23:35.014Z,17.10
2022-08-12T03:26:04.600Z,17.10
2022-08-12T03:28:56.587Z,17.10
2022-08-12T03:31:29.776Z,17.00
2022-08-12T03:34:03.103Z,17.00
2022-08-12T03:36:33.557Z,17.00
2022-08-12T03:39:18.224Z,17.00
2022-08-12T03:41:51.383Z,17.00
2022-08-12T03:44:42.562Z,17.00
2022-08-12T03:47:35.360Z,17.00
2022-08-12T03:50:21.470Z,17.00
2022-08-12T03:53:07.103Z,17.00
2022-08-12T03:55:53.310Z,17.00
2022-08-12T03:58:39.477Z,17.00
2022-08-12T04:01:07.809Z,17.00
2022-08-12T04:03:55.935Z,17.00
2022-08-12T04:06:35.219Z,17.00
2022-08-12T04:09:16.394Z,16.90
2022-08-12T04:12:03.068Z,16.90
2022-08-12T04:14:31.524Z,16.90
2022-08-12T04:16:59.854Z,16.90
2022-08-12T04:19:29.581Z,17.00
2022-08-12T04:22:03.105Z,17.00
2022-08-12T04:24:34.876Z,17.00
2022-08-12T04:27:05.125Z,17.00
2022-08-12T04:30:31.896Z,17.10
2022-08-12T04:32:22.834Z,17.10
2022-08-12T04:34:52.548Z,17.10
2022-08-12T04:37:20.797Z,17.10
2022-08-12T04:39:49.211Z,17.20
2022-08-12T04:42:17.494Z,17.20
2022-08-12T04:44:45.668Z,17.20
2022-08-12T04:47:15.215Z,17.20
2022-08-12T04:49:46.475Z,17.20
2022-08-12T04:52:16.099Z,17.30
2022-08-12T04:54:44.718Z,17.30
2022-08-12T04:57:13.109Z,17.30
2022-08-12T04:59:47.713Z,17.30
2022-08-12T05:02:21.735Z,17.40
2022-08-12T05:04:52.530Z,17.40
2022-08-12T05:07:24.357Z,17.40
2022-08-12T05:09:59.916Z,17.40
2022-08-12T05:12:33.909Z,17.50
2022-08-12T05:15:02.150Z,17.50
2022-08-12T05:17:30.371Z,17.50
2022-08-12T05:20:00.135Z,17.60
2022-08-12T05:22:30.243Z,17.70
2022-08-12T05:25:06.830Z,17.70
2022-08-12T05:27:35.460Z,17.80
2022-08-12T05:30:07.822Z,17.80
2022-08-12T05:32:37.344Z,17.90
2022-08-12T05:35:08.167Z,18.00
2022-08-12T05:37:37.786Z,18.00
2022-08-12T05:40:11.239Z,18.00
2022-08-12T05:42:40.153Z,18.10
2022-08-12T05:45:10.581Z,18.10
2022-08-12T05:47:53.254Z,18.20
2022-08-12T05:50:22.680Z,18.30
2022-08-12T05:52:54.005Z,18.40
2022-08-12T05:55:25.840Z,18.40
2022-08-12T05:57:56.634Z,18.50
2022-08-12T06:00:25.976Z,18.50
2022-08-12T06:02:57.027Z,18.60
2022-08-12T06:05:25.316Z,18.70
2022-08-12T06:08:01.556Z,18.70
2022-08-12T06:10:32.905Z,18.80
2022-08-12T06:13:02.589Z,18.90
2022-08-12T06:15:31.167Z,19.00
2022-08-12T06:18:13.775Z,19.10
2022-08-12T06:20:45.135Z,19.20
2022-08-12T06:23:15.343Z,19.30
2022-08-12T06:25:43.693Z,19.40
2022-08-12T06:28:17.534Z,19.50
2022-08-12T06:30:53.060Z,19.60
2022-08-12T06:33:55.484Z,19.70
2022-08-12T06:36:14.767Z,19.80
2022-08-12T06:38:51.135Z,19.90
2022-08-12T06:41:36.885Z,20.00
2022-08-12T06:44:09.024Z,20.20
2022-08-12T06:46:38.917Z,20.30
2022-08-12T06:49:08.640Z,20.40
2022-08-12T06:51:36.902Z,20.50
2022-08-12T06:54:07.330Z,20.70
2022-08-12T06:59:25.771Z,20.90
2022-08-12T07:01:55.015Z,21.00
2022-08-12T07:04:36.322Z,21.20
2022-08-12T07:07:07.179Z,21.30
2022-08-12T07:10:01.328Z,21.50
2022-08-12T07:12:27.977Z,21.60
2022-08-12T07:14:57.667Z,21.70
2022-08-12T07:17:26.030Z,21.90
2022-08-12T07:19:57.051Z,22.00
2022-08-12T07:22:29.262Z,22.10
2022-08-12T07:25:16.441Z,22.30
2022-08-12T07:27:46.695Z,22.40
2022-08-12T07:30:15.415Z,22.50
2022-08-12T07:32:51.548Z,22.70
2022-08-12T07:35:20.374Z,22.80
2022-08-12T07:37:50.392Z,22.90
2022-08-12T07:40:20.641Z,23.00
2022-08-12T07:42:48.914Z,23.20
2022-08-12T07:45:17.701Z,23.30
2022-08-12T07:47:45.997Z,23.40
2022-08-12T07:50:16.907Z,23.50
2022-08-12T07:52:48.848Z,23.60
2022-08-12T07:55:19.628Z,23.80
2022-08-12T07:57:55.857Z,23.90
2022-08-12T08:00:24.307Z,24.00
2022-08-12T08:02:54.469Z,24.10
2022-08-12T08:05:24.013Z,24.20
2022-08-12T08:07:53.541Z,24.40
2022-08-12T08:10:23.174Z,24.50
2022-08-12T08:12:53.479Z,24.60
2022-08-12T08:15:38.603Z,24.70
2022-08-12T08:18:25.733Z,24.80
2022-08-12T08:20:55.930Z,24.80
2022-08-12T08:23:46.485Z,24.90
2022-08-12T08:26:16.492Z,25.00
2022-08-12T08:28:44.887Z,25.10
2022-08-12T08:31:14.274Z,25.10
2022-08-12T08:34:05.250Z,25.20
2022-08-12T08:36:30.900Z,25.20
2022-08-12T08:38:59.151Z,25.30
2022-08-12T08:42:17.580Z,25.40
2022-08-12T08:44:36.370Z,25.50
2022-08-12T08:47:05.657Z,25.60
2022-08-12T08:49:37.319Z,25.70
2022-08-12T08:52:06.554Z,25.70
2022-08-12T08:54:34.798Z,25.80
2022-08-12T08:57:05.521Z,25.80
2022-08-12T08:59:33.758Z,25.90
2022-08-12T09:02:02.507Z,26.00
2022-08-12T09:05:12.752Z,26.00
2022-08-12T09:07:43.798Z,26.10
2022-08-12T09:10:23.463Z,26.20
2022-08-12T09:13:23.115Z,26.30
2022-08-12T09:18:45.567Z,26.50
2022-08-12T09:21:14.917Z,26.60
2022-08-12T09:24:01.137Z,26.70
2022-08-12T09:26:31.585Z,26.80
2022-08-12T09:29:11.815Z,26.90
2022-08-12T09:32:07.973Z,26.90
2022-08-12T09:34:33.755Z,27.00
2022-08-12T09:37:20.391Z,27.00
2022-08-12T09:40:05.066Z,27.00
2022-08-12T09:43:16.952Z,27.00
2022-08-12T09:46:06.823Z,26.90
2022-08-12T09:48:39.209Z,27.00
2022-08-12T09:51:17.230Z,27.20
2022-08-12T09:54:05.943Z,27.30
2022-08-12T09:57:01.095Z,27.50
2022-08-12T10:00:15.704Z,27.50
2022-08-12T10:02:45.302Z,27.50
2022-08-12T10:05:13.279Z,27.60
2022-08-12T10:07:45.779Z,27.50
2022-08-12T10:10:24.053Z,27.50
2022-08-12T10:13:36.322Z,27.60
2022-08-12T10:16:22.164Z,27.70
2022-08-12T10:18:54.679Z,27.80
2022-08-12T10:21:24.351Z,27.90
2022-08-12T10:24:06.015Z,28.10
2022-08-12T10:26:51.674Z,28.20
2022-08-12T10:30:02.968Z,28.30
2022-08-12T10:32:45.205Z,28.40
2022-08-12T10:35:17.014Z,28.60
2022-08-12T10:38:36.642Z,28.70
2022-08-12T10:40:55.476Z,28.80
2022-08-12T10:43:56.082Z,28.90
2022-08-12T10:46:31.308Z,28.90
2022-08-12T10:49:07.074Z,28.80
2022-08-12T10:52:32.495Z,28.70
2022-08-12T10:54:41.571Z,28.70
2022-08-12T10:57:18.323Z,28.70
2022-08-12T11:00:31.701Z,28.70
2022-08-12T11:04:23.880Z,28.80
2022-08-12T11:07:08.081Z,28.90
2022-08-12T11:08:43.310Z,29.00
2022-08-12T11:12:07.861Z,29.20
2022-08-12T11:14:09.835Z,29.40
2022-08-12T11:17:43.273Z,29.60
2022-08-12T11:19:45.988Z,29.70
2022-08-12T11:22:14.411Z,29.90
2022-08-12T11:24:51.172Z,30.00
2022-08-12T11:27:20.130Z,30.00
2022-08-12T11:30:02.119Z,30.00
2022-08-12T11:32:39.024Z,30.00
2022-08-12T11:35:11.800Z,30.00
2022-08-12T11:37:58.777Z,29.90
2022-08-12T11:40:29.582Z,29.90
2022-08-12T11:43:17.157Z,29.90
2022-08-12T11:45:47.191Z,29.90
2022-08-12T11:48:16.688Z,29.90
2022-08-12T11:50:47.371Z,30.00
2022-08-12T11:53:58.341Z,30.00
2022-08-12T11:56:08.016Z,30.00
2022-08-12T12:02:01.350Z,30.10
2022-08-12T12:04:29.251Z,30.10
2022-08-12T12:07:07.485Z,29.90
2022-08-12T12:09:52.259Z,29.90
2022-08-12T12:12:25.209Z,29.90
2022-08-12T12:14:54.164Z,29.90
2022-08-12T12:17:23.395Z,29.60
2022-08-12T12:19:51.630Z,29.60
2022-08-12T12:22:32.008Z,29.70
2022-08-12T12:25:08.984Z,29.90
2022-08-12T12:28:04.140Z,29.90
2022-08-12T12:30:34.087Z,29.60
2022-08-12T12:33:02.362Z,29.40
2022-08-12T12:36:18.440Z,29.40
2022-08-12T12:38:19.978Z,29.60
2022-08-12T12:40:50.614Z,29.70
2022-08-12T12:43:42.527Z,29.90
2022-08-12T12:46:09.632Z,29.90
2022-08-12T12:48:41.393Z,29.90
2022-08-12T12:51:48.951Z,29.90
2022-08-12T12:54:09.958Z,29.90
2022-08-12T12:56:41.873Z,29.90
2022-08-12T12:59:54.716Z,30.00
2022-08-12T13:02:08.189Z,30.10
2022-08-12T13:04:37.857Z,30.20
2022-08-12T13:07:07.015Z,30.40
2022-08-12T13:09:36.890Z,30.40
2022-08-12T13:12:10.973Z,30.30
2022-08-12T13:14:40.590Z,30.20
2022-08-12T13:17:14.481Z,30.10
2022-08-12T13:19:48.355Z,30.00
2022-08-12T13:22:19.887Z,29.90
2022-08-12T13:24:55.073Z,29.80
2022-08-12T13:27:28.270Z,29.70
2022-08-12T13:30:06.807Z,29.70
2022-08-12T13:32:35.414Z,29.90
2022-08-12T13:35:04.021Z,30.30
2022-08-12T13:37:55.301Z,30.70
2022-08-12T13:40:24.879Z,31.00
2022-08-12T13:42:57.678Z,31.20
2022-08-12T13:45:29.023Z,31.20
2022-08-12T13:47:58.544Z,31.00
2022-08-12T13:50:32.378Z,30.90
2022-08-12T13:53:06.177Z,30.70
2022-08-12T13:55:59.617Z,30.70
2022-08-12T13:58:32.918Z,30.70
2022-08-12T14:01:06.317Z,30.60
2022-08-12T14:03:50.147Z,30.60
2022-08-12T14:06:19.975Z,30.70
2022-08-12T14:08:49.845Z,30.90
2022-08-12T14:11:19.342Z,30.90
2022-08-12T14:14:03.470Z,30.80
2022-08-12T14:16:48.849Z,30.40
2022-08-12T14:19:24.466Z,30.10
2022-08-12T14:21:58.861Z,30.20
2022-08-12T14:24:30.721Z,30.40
2022-08-12T14:27:02.142Z,30.50
2022-08-12T14:29:55.817Z,30.40
2022-08-12T14:32:21.094Z,30.30
2022-08-12T14:34:52.981Z,30.30
2022-08-12T14:37:55.565Z,30.30
2022-08-12T14:40:18.657Z,30.40
2022-08-12T14:42:47.219Z,30.50
2022-08-12T14:45:15.739Z,30.70
2022-08-12T14:47:58.330Z,30.70
2022-08-12T14:50:41.211Z,30.70
2022-08-12T14:59:23.541Z,30.60
2022-08-12T15:01:52.433Z,30.50
2022-08-12T15:04:29.159Z,30.30
2022-08-12T15:06:58.167Z,30.00
2022-08-12T15:09:29.537Z,29.90
2022-08-12T15:12:04.032Z,29.90
2022-08-12T15:14:35.436Z,29.90
2022-08-12T15:17:07.119Z,30.00
2022-08-12T15:20:14.936Z,30.10
2022-08-12T15:22:37.939Z,30.00
2022-08-12T15:25:08.955Z,30.00
2022-08-12T15:28:05.498Z,30.00
2022-08-12T15:30:32.292Z,29.90
2022-08-12T15:33:12.374Z,29.90
2022-08-12T15:35:50.329Z,29.90
2022-08-12T15:38:22.252Z,29.90
2022-08-12T15:40:54.045Z,30.00
2022-08-12T15:43:51.728Z,30.10
2022-08-12T15:46:15.770Z,30.10
2022-08-12T15:48:46.715Z,30.10
2022-08-12T15:51:57.314Z,30.20
2022-08-12T15:54:33.472Z,30.10
2022-08-12T15:57:08.347Z,30.20
2022-08-12T16:00:02.301Z,30.20
2022-08-12T16:02:29.588Z,30.20
2022-08-12T16:04:58.604Z,30.20
2022-08-12T16:07:32.617Z,30.20
2022-08-12T16:10:08.793Z,30.20
2022-08-12T16:12:43.487Z,30.10
2022-08-12T16:15:25.096Z,29.90
2022-08-12T16:18:15.161Z,29.80
2022-08-12T16:20:46.560Z,29.80
2022-08-12T16:23:35.852Z,29.70
2022-08-12T16:26:15.063Z,29.60
2022-08-12T16:28:44.059Z,29.30
2022-08-12T16:31:23.434Z,29.10
2022-08-12T16:33:58.923Z,29.00
2022-08-12T16:36:28.265Z,28.80
2022-08-12T16:39:01.347Z,28.60
2022-08-12T16:41:38.116Z,28.50
2022-08-12T16:44:08.972Z,28.40
2022-08-12T16:46:37.893Z,28.30
2022-08-12T16:49:13.416Z,28.30
2022-08-12T16:51:46.286Z,28.30
2022-08-12T16:54:18.499Z,28.30
2022-08-12T16:56:55.152Z,28.30
2022-08-12T16:59:30.862Z,28.30
2022-08-12T17:02:31.927Z,28.40
2022-08-12T17:05:04.779Z,28.40
2022-08-12T17:07:36.472Z,28.40
2022-08-12T17:10:08.771Z,28.40
2022-08-12T17:12:37.575Z,28.40
2022-08-12T17:15:51.233Z,28.30
2022-08-12T17:18:39.542Z,28.30
2022-08-12T17:20:47.005Z,28.20
2022-08-12T17:23:16.654Z,28.20
2022-08-12T17:25:48.451Z,28.20
2022-08-12T17:28:17.001Z,28.20
2022-08-12T17:30:45.580Z,28.20
2022-08-12T17:33:25.553Z,28.10
2022-08-12T17:35:53.353Z,28.10
2022-08-12T17:38:22.848Z,28.10
2022-08-12T17:40:54.521Z,28.00
2022-08-12T17:43:56.566Z,27.90
2022-08-12T17:46:12.588Z,27.90
2022-08-12T17:48:55.496Z,27.80
2022-08-12T17:51:25.994Z,27.70
2022-08-12T17:54:11.112Z,27.70
2022-08-12T17:56:43.383Z,27.60
2022-08-12T17:59:12.442Z,27.60
2022-08-12T18:01:44.299Z,27.50
2022-08-12T18:04:22.083Z,27.50
2022-08-12T18:06:52.389Z,27.50
2022-08-12T18:09:21.188Z,27.40
2022-08-12T18:12:08.665Z,27.40
2022-08-12T18:14:40.977Z,27.30
2022-08-12T18:17:10.249Z,27.30
2022-08-12T18:20:07.121Z,27.10
2022-08-12T18:22:30.557Z,27.10
2022-08-12T18:26:10.022Z,27.00
2022-08-12T18:28:16.610Z,26.90
2022-08-12T18:30:52.571Z,26.80
2022-08-12T18:33:24.939Z,26.70
2022-08-12T18:35:55.699Z,26.60
2022-08-12T18:38:26.865Z,26.50
2022-08-12T18:41:21.101Z,26.30
2022-08-12T18:43:59.817Z,26.20
2022-08-12T18:46:54.328Z,26.10
2022-08-12T18:49:29.677Z,26.00
2022-08-12T18:52:05.071Z,25.90
2022-08-12T18:54:36.019Z,25.80
2022-08-12T18:57:19.712Z,25.70
2022-08-12T19:00:07.084Z,25.60
2022-08-12T19:02:39.803Z,25.50
2022-08-12T19:05:11.227Z,25.40
2022-08-12T19:08:00.147Z,25.40
2022-08-12T19:10:30.429Z,25.20
2022-08-12T19:13:23.017Z,25.20
2022-08-12T19:15:57.460Z,25.10
2022-08-12T19:18:29.422Z,25.00
2022-08-12T19:21:00.421Z,24.90
2022-08-12T19:23:35.929Z,24.90
2022-08-12T19:26:03.492Z,24.80
2022-08-12T19:28:35.523Z,24.70
2022-08-12T19:31:55.651Z,24.60
2022-08-12T19:37:26.731Z,24.50
2022-08-12T19:40:09.309Z,24.50
2022-08-12T19:42:42.699Z,24.50
2022-08-12T19:45:14.037Z,24.40
2022-08-12T19:47:46.676Z,24.40
2022-08-12T19:50:19.938Z,24.30
2022-08-12T19:52:51.221Z,24.30
2022-08-12T19:55:21.754Z,24.30
2022-08-12T19:58:02.524Z,24.20
2022-08-12T20:00:34.518Z,24.10
2022-08-12T20:03:06.319Z,24.10
2022-08-12T20:06:05.526Z,24.00
2022-08-12T20:08:34.235Z,24.00
2022-08-12T20:12:11.963Z,23.90
2022-08-12T20:14:00.625Z,23.90
2022-08-12T20:16:52.480Z,23.90
2022-08-12T20:19:52.531Z,23.80
2022-08-12T20:22:23.333Z,23.80
2022-08-12T20:24:55.173Z,23.80
2022-08-12T20:27:29.627Z,23.80
2022-08-12T20:30:13.830Z,23.70
2022-08-12T20:32:53.859Z,23.70
2022-08-12T20:35:24.694Z,23.70
2022-08-12T20:38:06.850Z,23.60
2022-08-12T20:40:42.235Z,23.60
2022-08-12T20:43:24.279Z,23.60
2022-08-12T20:45:57.466Z,23.50
2022-08-12T20:48:28.689Z,23.50
2022-08-12T20:51:04.581Z,23.50
2022-08-12T20:53:57.591Z,23.40
2022-08-12T20:56:31.012Z,23.30
2022-08-12T20:59:01.076Z,23.30
2022-08-12T21:01:46.593Z,23.20
2022-08-12T21:04:30.864Z,23.20
2022-08-12T21:07:04.595Z,23.20
2022-08-12T21:09:40.722Z,23.10
2022-08-12T21:12:31.156Z,23.10
2022-08-12T21:15:16.997Z,23.00
2022-08-12T21:18:00.898Z,23.00
2022-08-12T21:20:37.856Z,22.90
2022-08-12T21:23:07.647Z,22.90
2022-08-12T21:25:44.640Z,22.80
2022-08-12T21:28:14.731Z,22.70
2022-08-12T21:31:10.462Z,22.70
2022-08-12T21:33:58.475Z,22.60
2022-08-12T21:36:22.763Z,22.60
2022-08-12T21:39:18.560Z,22.60
2022-08-12T21:41:51.540Z,22.50
2022-08-12T21:44:24.288Z,22.40
2022-08-12T21:47:20.206Z,22.40
2022-08-12T21:49:55.558Z,22.30
2022-08-12T21:52:28.240Z,22.30
2022-08-12T21:55:08.508Z,22.20
2022-08-12T21:57:50.636Z,22.10
2022-08-12T22:00:20.825Z,22.10
2022-08-12T22:03:07.747Z,22.00
2022-08-12T22:05:53.828Z,22.00
2022-08-12T22:08:25.666Z,21.90
2022-08-12T22:10:56.287Z,21.90
2022-08-12T22:14:06.925Z,21.80
2022-08-12T22:16:14.251Z,21.80
2022-08-12T22:18:50.326Z,21.70
2022-08-12T22:21:22.160Z,21.70
2022-08-12T22:24:05.232Z,21.70
2022-08-12T22:26:37.646Z,21.70
2022-08-12T22:29:23.963Z,21.70
2022-08-12T22:31:55.783Z,21.60
2022-08-12T22:34:29.528Z,21.60
2022-08-12T22:36:58.269Z,21.60
2022-08-12T22:39:26.712Z,21.50
2022-08-12T22:42:28.786Z,21.50
2022-08-12T22:45:16.547Z,21.60
2022-08-12T22:47:54.790Z,21.50
2022-08-12T22:50:28.064Z,21.40
2022-08-12T22:53:15.117Z,21.40
2022-08-12T22:56:05.489Z,21.40
2022-08-12T22:58:36.706Z,21.40
2022-08-12T23:01:10.902Z,21.40
2022-08-12T23:03:47.879Z,21.40
2022-08-12T23:06:20.150Z,21.40
2022-08-12T23:08:48.591Z,21.30
2022-08-12T23:11:17.956Z,21.30
2022-08-12T23:13:56.075Z,21.20
2022-08-12T23:16:31.009Z,21.20
2022-08-12T23:19:10.074Z,21.20
2022-08-12T23:22:06.108Z,21.10
2022-08-12T23:24:55.612Z,21.10
2022-08-12T23:27:44.085Z,21.10
2022-08-12T23:30:25.028Z,21.10
2022-08-12T23:33:00.735Z,21.10
2022-08-12T23:35:45.670Z,21.10
2022-08-12T23:38:30.188Z,21.10
2022-08-12T23:41:00.946Z,21.10
2022-08-12T23:43:39.301Z,21.10
2022-08-12T23:46:11.224Z,21.00
2022-08-12T23:48:39.989Z,21.00
2022-08-12T23:51:22.727Z,20.90
2022-08-12T23:53:55.275Z,20.90
2022-08-12T23:56:24.728Z,20.90
2022-08-12T23:58:55.062Z,20.80
